createdAt,value
2023-02-03T00:02:23.837Z,2.48
2023-02-03T00:04:52.158Z,2.49
2023-02-03T00:07:19.736Z,2.49
2023-02-03T00:09:48.024Z,2.53
2023-02-03T00:12:15.550Z,2.46
2023-02-03T00:14:45.795Z,2.53
2023-02-03T00:17:15.250Z,2.52
2023-02-03T00:19:42.973Z,2.46
2023-02-03T00:22:10.551Z,2.44
2023-02-03T00:24:38.413Z,2.46
2023-02-03T00:27:06.386Z,2.42
2023-02-03T00:29:33.918Z,2.39
2023-02-03T00:32:01.550Z,2.39
2023-02-03T00:34:30.436Z,2.42
2023-02-03T00:36:58.036Z,2.42
2023-02-03T00:39:25.774Z,2.45
2023-02-03T00:41:53.327Z,2.42
2023-02-03T00:44:20.900Z,2.47
2023-02-03T00:46:48.866Z,2.47
2023-02-03T00:49:16.414Z,2.42
2023-02-03T00:51:44.016Z,2.46
2023-02-03T00:54:12.185Z,2.40
2023-02-03T00:56:41.244Z,2.50
2023-02-03T00:59:08.749Z,2.41
2023-02-03T01:01:36.387Z,2.38
2023-02-03T01:04:04.265Z,2.45
2023-02-03T01:06:33.143Z,2.41
2023-02-03T01:09:02.438Z,2.39
2023-02-03T01:11:30.074Z,2.22
2023-02-03T01:14:01.012Z,2.23
2023-02-03T01:16:30.016Z,2.18
2023-02-03T01:18:57.556Z,2.29
2023-02-03T01:21:25.979Z,2.28
2023-02-03T01:23:53.652Z,2.26
2023-02-03T01:26:22.696Z,2.13
2023-02-03T01:28:58.616Z,2.14
2023-02-03T01:31:28.381Z,2.04
2023-02-03T01:33:56.406Z,1.99
2023-02-03T01:36:26.162Z,2.03
2023-02-03T01:38:53.889Z,2.04
2023-02-03T01:41:24.657Z,1.97
2023-02-03T01:43:53.918Z,1.88
2023-02-03T01:46:35.795Z,1.91
2023-02-03T01:49:30.089Z,1.75
2023-02-03T01:51:57.662Z,1.72
2023-02-03T01:54:27.895Z,1.72
2023-02-03T01:56:59.621Z,1.68
2023-02-03T01:59:27.226Z,1.67
2023-02-03T02:01:56.722Z,1.70
2023-02-03T02:04:26.825Z,1.66
2023-02-03T02:06:56.808Z,1.64
2023-02-03T02:09:25.394Z,1.69
2023-02-03T02:11:53.980Z,1.69
2023-02-03T02:14:21.748Z,1.71
2023-02-03T02:17:06.545Z,1.74
2023-02-03T02:19:43.885Z,1.70
2023-02-03T02:22:32.151Z,1.70
2023-02-03T02:25:25.169Z,1.77
2023-02-03T02:28:14.444Z,1.78
2023-02-03T02:30:57.379Z,1.85
2023-02-03T02:33:46.342Z,1.90
2023-02-03T02:36:26.001Z,1.90
2023-02-03T02:38:56.546Z,1.82
2023-02-03T02:41:35.516Z,1.81
2023-02-03T02:44:21.881Z,1.87
2023-02-03T02:46:54.117Z,1.96
2023-02-03T02:49:44.821Z,1.94
2023-02-03T02:52:13.445Z,2.12
2023-02-03T02:54:44.924Z,2.20
2023-02-03T02:57:13.514Z,2.24
2023-02-03T02:59:41.069Z,2.30
2023-02-03T03:02:12.926Z,2.37
2023-02-03T03:04:41.508Z,2.41
2023-02-03T03:07:12.893Z,2.47
2023-02-03T03:09:48.504Z,2.43
2023-02-03T03:12:28.670Z,2.48
2023-02-03T03:15:05.035Z,2.54
2023-02-03T03:17:37.768Z,2.51
2023-02-03T03:20:08.688Z,2.55
2023-02-03T03:22:39.017Z,2.64
2023-02-03T03:25:12.910Z,2.63
2023-02-03T03:27:42.376Z,2.69
2023-02-03T03:30:23.905Z,2.77
2023-02-03T03:32:51.607Z,2.91
2023-02-03T03:35:19.828Z,2.80
2023-02-03T03:38:05.886Z,2.90
2023-02-03T03:40:35.414Z,2.80
2023-02-03T03:43:06.559Z,2.72
2023-02-03T03:45:57.268Z,2.70
2023-02-03T03:48:52.554Z,2.67
2023-02-03T03:51:39.896Z,2.61
2023-02-03T03:54:11.938Z,2.63
2023-02-03T03:56:45.790Z,2.61
2023-02-03T03:59:13.520Z,2.69
2023-02-03T04:01:41.099Z,2.73
2023-02-03T04:04:12.767Z,2.85
2023-02-03T04:06:40.475Z,2.78
2023-02-03T04:09:08.100Z,2.73
2023-02-03T04:11:54.654Z,2.73
2023-02-03T04:14:22.320Z,2.78
2023-02-03T04:16:49.953Z,2.47
2023-02-03T04:19:17.566Z,2.61
2023-02-03T04:21:46.530Z,2.47
2023-02-03T04:24:15.138Z,2.67
2023-02-03T04:26:43.185Z,2.58
2023-02-03T04:29:11.206Z,2.43
2023-02-03T04:31:39.068Z,2.35
2023-02-03T04:34:06.828Z,2.39
2023-02-03T04:36:35.045Z,2.33
2023-02-03T04:39:03.180Z,2.25
2023-02-03T04:41:32.864Z,2.26
2023-02-03T04:44:00.592Z,2.34
2023-02-03T04:46:28.169Z,2.36
2023-02-03T04:48:55.725Z,2.32
2023-02-03T04:51:23.301Z,2.22
2023-02-03T04:53:50.860Z,2.12
2023-02-03T04:56:18.481Z,2.13
2023-02-03T04:58:46.129Z,2.02
2023-02-03T05:01:13.729Z,2.11
2023-02-03T05:03:41.337Z,2.27
2023-02-03T05:06:08.956Z,2.24
2023-02-03T05:08:36.783Z,2.21
2023-02-03T05:11:05.864Z,2.14
2023-02-03T05:13:34.658Z,2.09
2023-02-03T05:16:02.272Z,2.11
2023-02-03T05:18:29.936Z,2.00
2023-02-03T05:20:57.476Z,2.05
2023-02-03T05:23:25.132Z,2.01
2023-02-03T05:25:52.856Z,2.06
2023-02-03T05:28:20.377Z,2.15
2023-02-03T05:30:48.094Z,2.07
2023-02-03T05:33:15.738Z,2.06
2023-02-03T05:35:43.388Z,2.07
2023-02-03T05:38:10.958Z,2.12
2023-02-03T05:40:57.129Z,2.04
2023-02-03T05:43:25.163Z,2.22
2023-02-03T05:45:52.726Z,2.14
2023-02-03T05:48:20.343Z,2.12
2023-02-03T05:50:47.934Z,2.10
2023-02-03T05:53:15.457Z,2.04
2023-02-03T05:55:43.308Z,2.02
2023-02-03T05:58:10.927Z,1.92
2023-02-03T06:00:39.135Z,2.14
2023-02-03T06:03:25.190Z,1.99
2023-02-03T06:05:53.523Z,2.14
2023-02-03T06:08:21.045Z,2.13
2023-02-03T06:10:48.879Z,2.12
2023-02-03T06:13:16.679Z,2.21
2023-02-03T06:15:45.231Z,2.25
2023-02-03T06:18:12.807Z,2.36
2023-02-03T06:20:40.445Z,2.36
2023-02-03T06:23:07.976Z,2.46
2023-02-03T06:25:36.162Z,2.37
2023-02-03T06:28:05.059Z,2.36
2023-02-03T06:30:33.379Z,2.47
2023-02-03T06:33:00.989Z,2.35
2023-02-03T06:35:28.824Z,2.54
2023-02-03T06:37:56.555Z,2.53
2023-02-03T06:40:24.049Z,2.52
2023-02-03T06:42:51.662Z,2.59
2023-02-03T06:45:19.291Z,2.81
2023-02-03T06:47:47.134Z,2.78
2023-02-03T06:50:15.945Z,2.73
2023-02-03T06:52:43.831Z,2.83
2023-02-03T06:55:11.395Z,2.96
2023-02-03T06:57:46.863Z,3.01
2023-02-03T07:00:18.414Z,3.04
2023-02-03T07:02:46.697Z,3.02
2023-02-03T07:05:14.373Z,2.95
2023-02-03T07:07:42.249Z,3.16
2023-02-03T07:10:10.408Z,3.03
2023-02-03T07:12:38.511Z,3.22
2023-02-03T07:15:06.372Z,3.42
2023-02-03T07:17:34.275Z,3.56
2023-02-03T07:20:01.961Z,3.68
2023-02-03T07:22:30.292Z,3.65
2023-02-03T07:24:57.889Z,3.53
2023-02-03T07:27:28.117Z,3.62
2023-02-03T07:29:55.737Z,3.73
2023-02-03T07:32:23.288Z,3.67
2023-02-03T07:34:50.896Z,3.43
2023-02-03T07:37:18.861Z,3.63
2023-02-03T07:39:47.322Z,3.48
2023-02-03T07:42:16.017Z,3.58
2023-02-03T07:44:46.680Z,3.62
2023-02-03T07:47:34.178Z,3.77
2023-02-03T07:50:02.215Z,3.81
2023-02-03T07:52:30.116Z,3.95
2023-02-03T07:54:58.095Z,4.43
2023-02-03T07:57:25.911Z,4.65
2023-02-03T07:59:53.924Z,4.80
2023-02-03T08:02:21.566Z,4.66
2023-02-03T08:04:49.416Z,4.86
2023-02-03T08:07:17.294Z,4.88
2023-02-03T08:09:45.050Z,4.80
2023-02-03T08:12:12.888Z,5.10
2023-02-03T08:14:42.892Z,5.31
2023-02-03T08:17:11.026Z,5.21
2023-02-03T08:19:38.791Z,5.08
2023-02-03T08:22:06.549Z,5.24
2023-02-03T08:24:34.246Z,5.32
2023-02-03T08:27:01.920Z,5.39
2023-02-03T08:29:29.927Z,5.61
2023-02-03T08:31:58.913Z,5.83
2023-02-03T08:34:27.044Z,5.94
2023-02-03T08:36:54.736Z,6.07
2023-02-03T08:39:23.146Z,5.77
2023-02-03T08:41:50.947Z,5.87
2023-02-03T08:44:19.969Z,5.73
2023-02-03T08:46:53.829Z,5.93
2023-02-03T08:49:21.504Z,5.89
2023-02-03T08:51:49.114Z,6.09
2023-02-03T08:54:17.148Z,6.03
2023-02-03T08:56:45.428Z,6.47
2023-02-03T08:59:13.307Z,6.65
2023-02-03T09:01:44.881Z,6.54
2023-02-03T09:04:12.775Z,6.42
2023-02-03T09:06:40.459Z,6.35
2023-02-03T09:09:08.059Z,6.46
2023-02-03T09:11:35.961Z,6.21
2023-02-03T09:14:04.037Z,6.16
2023-02-03T09:16:33.382Z,6.21
2023-02-03T09:19:01.103Z,6.46
2023-02-03T09:21:34.160Z,6.46
2023-02-03T09:24:09.069Z,6.68
2023-02-03T09:26:37.510Z,6.70
2023-02-03T09:29:05.413Z,6.26
2023-02-03T09:31:33.824Z,6.16
2023-02-03T09:34:01.530Z,6.53
2023-02-03T09:36:29.523Z,6.46
2023-02-03T09:38:58.320Z,6.46
2023-02-03T09:41:44.615Z,6.66
2023-02-03T09:44:13.938Z,6.56
2023-02-03T09:46:46.430Z,6.74
2023-02-03T09:49:18.679Z,7.04
2023-02-03T09:52:02.901Z,6.93
2023-02-03T09:54:33.764Z,7.18
2023-02-03T09:57:02.395Z,7.43
2023-02-03T09:59:30.088Z,7.35
2023-02-03T10:02:16.986Z,7.07
2023-02-03T10:05:01.029Z,7.08
2023-02-03T10:07:51.196Z,7.00
2023-02-03T10:10:35.233Z,7.32
2023-02-03T10:13:05.997Z,7.33
2023-02-03T10:15:45.047Z,7.21
2023-02-03T10:18:25.691Z,7.40
2023-02-03T10:20:58.360Z,7.29
2023-02-03T10:23:31.894Z,6.93
2023-02-03T10:26:01.167Z,7.01
2023-02-03T10:28:42.729Z,7.10
2023-02-03T10:31:17.918Z,6.84
2023-02-03T10:33:45.660Z,6.61
2023-02-03T10:36:23.027Z,6.83
2023-02-03T10:38:59.238Z,6.84
2023-02-03T10:41:26.945Z,6.63
2023-02-03T10:43:56.056Z,6.49
2023-02-03T10:46:34.015Z,6.71
2023-02-03T10:49:02.287Z,6.91
2023-02-03T10:51:42.155Z,7.16
2023-02-03T10:54:30.665Z,7.09
2023-02-03T10:57:02.263Z,7.12
2023-02-03T10:59:33.447Z,6.93
2023-02-03T11:02:08.008Z,7.12
2023-02-03T11:04:36.219Z,7.34
2023-02-03T11:07:07.637Z,7.55
2023-02-03T11:09:40.086Z,7.81
2023-02-03T11:12:14.087Z,7.97
2023-02-03T11:14:49.739Z,7.87
2023-02-03T11:17:26.391Z,7.88
2023-02-03T11:19:55.312Z,7.84
2023-02-03T11:22:28.182Z,7.89
2023-02-03T11:24:55.746Z,7.83
2023-02-03T11:27:25.062Z,7.82
2023-02-03T11:30:30.426Z,7.69
2023-02-03T11:33:01.096Z,7.74
2023-02-03T11:35:30.122Z,7.70
2023-02-03T11:37:59.395Z,7.66
2023-02-03T11:40:34.371Z,7.66
2023-02-03T11:43:16.009Z,7.78
2023-02-03T11:45:44.596Z,7.73
2023-02-03T11:48:37.868Z,8.03
2023-02-03T11:51:26.397Z,7.82
2023-02-03T11:54:24.015Z,7.90
2023-02-03T11:57:30.757Z,7.91
2023-02-03T12:00:31.200Z,7.41
2023-02-03T12:03:01.521Z,7.53
2023-02-03T12:05:53.897Z,7.74
2023-02-03T12:08:41.036Z,7.82
2023-02-03T12:11:30.177Z,7.93
2023-02-03T12:14:05.042Z,7.76
2023-02-03T12:16:35.540Z,7.38
2023-02-03T12:19:26.277Z,7.59
2023-02-03T12:22:15.008Z,7.46
2023-02-03T12:24:58.638Z,7.39
2023-02-03T12:27:32.826Z,7.62
2023-02-03T12:30:04.740Z,7.56
2023-02-03T12:32:37.227Z,7.52
2023-02-03T12:35:32.023Z,7.43
2023-02-03T12:38:03.623Z,7.29
2023-02-03T12:40:41.403Z,7.34
2023-02-03T12:43:24.826Z,7.33
2023-02-03T12:45:55.666Z,7.32
2023-02-03T12:48:26.385Z,7.31
2023-02-03T12:50:56.709Z,7.34
2023-02-03T12:53:29.272Z,7.11
2023-02-03T12:56:12.517Z,6.99
2023-02-03T12:58:52.492Z,6.92
2023-02-03T13:01:24.910Z,6.91
2023-02-03T13:04:05.959Z,7.07
2023-02-03T13:07:02.700Z,6.92
2023-02-03T13:09:48.297Z,6.78
2023-02-03T13:12:27.977Z,6.68
2023-02-03T13:15:13.773Z,6.55
2023-02-03T13:18:20.375Z,6.68
2023-02-03T13:20:48.200Z,6.73
2023-02-03T13:23:16.062Z,6.67
2023-02-03T13:26:02.472Z,6.50
2023-02-03T13:28:30.196Z,6.57
2023-02-03T13:31:21.962Z,6.54
2023-02-03T13:33:52.584Z,6.55
2023-02-03T13:36:38.925Z,6.68
2023-02-03T13:39:36.383Z,6.47
2023-02-03T13:42:28.055Z,6.57
2023-02-03T13:44:58.857Z,6.54
2023-02-03T13:47:28.616Z,6.61
2023-02-03T13:50:01.511Z,6.59
2023-02-03T13:52:31.530Z,6.72
2023-02-03T13:54:59.235Z,6.61
2023-02-03T13:57:36.322Z,6.58
2023-02-03T14:00:45.401Z,6.60
2023-02-03T14:03:39.333Z,6.47
2023-02-03T14:06:30.753Z,6.23
2023-02-03T14:09:01.303Z,6.00
2023-02-03T14:11:34.982Z,5.97
2023-02-03T14:14:06.019Z,5.84
2023-02-03T14:16:40.646Z,5.85
2023-02-03T14:19:31.834Z,5.69
2023-02-03T14:22:02.675Z,5.42
2023-02-03T14:24:33.637Z,5.53
2023-02-03T14:27:02.309Z,5.68
2023-02-03T14:29:32.254Z,5.48
2023-02-03T14:32:00.767Z,5.22
2023-02-03T14:34:32.030Z,5.18
2023-02-03T14:37:09.300Z,5.23
2023-02-03T14:39:55.571Z,4.91
2023-02-03T14:42:32.084Z,4.89
2023-02-03T14:45:31.184Z,4.78
2023-02-03T14:48:14.010Z,4.71
2023-02-03T14:50:48.764Z,4.62
2023-02-03T14:53:26.222Z,4.53
2023-02-03T14:56:53.996Z,4.55
2023-02-03T14:59:22.186Z,4.38
2023-02-03T15:01:53.563Z,4.34
2023-02-03T15:04:23.331Z,4.41
2023-02-03T15:06:52.304Z,4.28
2023-02-03T15:09:23.576Z,4.34
2023-02-03T15:11:51.280Z,4.27
2023-02-03T15:14:21.222Z,4.21
2023-02-03T15:16:53.698Z,4.13
2023-02-03T15:19:24.017Z,4.10
2023-02-03T15:21:52.033Z,4.06
2023-02-03T15:24:22.980Z,4.07
2023-02-03T15:26:52.636Z,4.12
2023-02-03T15:29:28.188Z,4.20
2023-02-03T15:32:25.003Z,4.00
2023-02-03T15:34:53.537Z,3.99
2023-02-03T15:37:29.089Z,3.92
2023-02-03T15:40:08.951Z,3.67
2023-02-03T15:42:59.131Z,3.50
2023-02-03T15:45:29.111Z,3.32
2023-02-03T15:48:29.106Z,3.21
2023-02-03T15:51:00.547Z,3.20
2023-02-03T15:53:55.917Z,3.09
2023-02-03T15:56:48.536Z,2.98
2023-02-03T15:59:29.956Z,2.78
2023-02-03T16:01:57.750Z,2.68
2023-02-03T16:04:25.380Z,2.72
2023-02-03T16:06:53.894Z,2.69
2023-02-03T16:09:40.599Z,2.67
2023-02-03T16:12:23.723Z,2.65
2023-02-03T16:14:52.153Z,2.57
2023-02-03T16:17:30.548Z,2.49
2023-02-03T16:20:13.627Z,2.45
2023-02-03T16:22:46.352Z,2.30
2023-02-03T16:25:20.183Z,2.24
2023-02-03T16:28:19.872Z,2.03
2023-02-03T16:31:31.250Z,2.03
2023-02-03T16:34:19.039Z,1.98
2023-02-03T16:37:04.877Z,1.95
2023-02-03T16:39:51.206Z,1.94
2023-02-03T16:42:38.359Z,1.86
2023-02-03T16:45:36.890Z,1.87
2023-02-03T16:48:23.520Z,1.73
2023-02-03T16:50:59.495Z,1.66
2023-02-03T16:53:30.344Z,1.68
2023-02-03T16:55:59.879Z,1.64
2023-02-03T16:58:27.561Z,1.58
2023-02-03T17:00:58.518Z,1.63
2023-02-03T17:03:27.468Z,1.66
2023-02-03T17:05:55.502Z,1.76
2023-02-03T17:08:24.779Z,1.78
2023-02-03T17:10:52.864Z,1.84
2023-02-03T17:13:21.354Z,1.85
2023-02-03T17:15:52.681Z,1.80
2023-02-03T17:18:20.799Z,1.77
2023-02-03T17:20:48.391Z,1.76
2023-02-03T17:23:18.932Z,1.79
2023-02-03T17:25:47.717Z,1.71
2023-02-03T17:28:15.440Z,1.72
2023-02-03T17:30:43.349Z,1.60
2023-02-03T17:33:13.892Z,1.48
2023-02-03T17:35:42.911Z,1.36
2023-02-03T17:38:11.527Z,1.26
2023-02-03T17:54:35.300Z,1.00
2023-02-03T17:57:03.436Z,0.93
2023-02-03T17:59:31.246Z,0.86
2023-02-03T18:01:59.935Z,0.86
2023-02-03T18:04:27.740Z,0.80
2023-02-03T18:06:55.302Z,0.66
2023-02-03T18:09:23.040Z,0.75
2023-02-03T18:11:50.789Z,0.62
2023-02-03T18:14:19.094Z,0.55
2023-02-03T18:16:47.177Z,0.52
2023-02-03T18:19:15.609Z,0.47
2023-02-03T18:21:43.350Z,0.49
2023-02-03T18:24:12.540Z,0.50
2023-02-03T18:26:51.253Z,0.39
2023-02-03T18:29:19.233Z,0.42
2023-02-03T18:31:47.299Z,0.49
2023-02-03T18:34:15.782Z,0.44
2023-02-03T18:36:43.311Z,0.50
2023-02-03T18:39:12.630Z,0.46
2023-02-03T18:41:40.647Z,0.50
2023-02-03T18:44:08.337Z,0.73
2023-02-03T18:46:36.184Z,0.70
2023-02-03T18:49:04.041Z,0.78
2023-02-03T18:51:32.589Z,1.01
2023-02-03T18:54:00.290Z,1.23
2023-02-03T18:56:35.127Z,1.28
2023-02-03T18:59:08.248Z,1.38
2023-02-03T19:01:36.984Z,1.49
2023-02-03T19:04:04.900Z,1.53
2023-02-03T19:06:34.523Z,1.78
2023-02-03T19:09:02.502Z,1.87
2023-02-03T19:11:30.427Z,1.95
2023-02-03T19:13:58.046Z,2.02
2023-02-03T19:16:26.438Z,2.10
2023-02-03T19:18:54.246Z,2.25
2023-02-03T19:21:21.906Z,2.30
2023-02-03T19:23:49.512Z,2.41
2023-02-03T19:26:17.106Z,2.55
2023-02-03T19:28:44.871Z,2.70
2023-02-03T19:31:15.329Z,2.76
2023-02-03T19:33:43.323Z,2.85
2023-02-03T19:36:11.286Z,2.86
2023-02-03T19:38:39.270Z,2.99
2023-02-03T19:41:08.176Z,3.05
2023-02-03T19:43:35.952Z,3.03
2023-02-03T19:46:03.671Z,3.03
2023-02-03T19:48:31.333Z,2.93
2023-02-03T19:50:59.025Z,2.89
2023-02-03T19:53:26.723Z,2.94
2023-02-03T19:55:54.388Z,2.82
2023-02-03T19:58:24.186Z,2.73
2023-02-03T20:00:51.840Z,2.71
2023-02-03T20:03:20.099Z,2.61
2023-02-03T20:05:47.658Z,2.58
2023-02-03T20:08:17.780Z,2.58
2023-02-03T20:10:46.915Z,2.54
2023-02-03T20:13:14.941Z,2.50
2023-02-03T20:15:42.583Z,2.61
2023-02-03T20:18:10.179Z,2.67
2023-02-03T20:20:38.025Z,2.74
2023-02-03T20:23:05.564Z,2.58
2023-02-03T20:25:33.501Z,2.44
2023-02-03T20:28:03.897Z,2.44
2023-02-03T20:30:32.088Z,2.41
2023-02-03T20:32:59.955Z,2.49
2023-02-03T20:35:28.181Z,2.44
2023-02-03T20:37:55.895Z,2.53
2023-02-03T20:40:24.075Z,2.62
2023-02-03T20:42:53.204Z,2.65
2023-02-03T20:45:22.285Z,2.67
2023-02-03T20:47:50.395Z,2.80
2023-02-03T20:50:20.133Z,2.86
2023-02-03T20:52:48.710Z,2.65
2023-02-03T20:55:18.448Z,2.69
2023-02-03T20:57:47.732Z,2.69
2023-02-03T21:00:20.562Z,2.58
2023-02-03T21:03:06.692Z,2.56
2023-02-03T21:05:39.985Z,2.36
2023-02-03T21:08:26.193Z,2.49
2023-02-03T21:10:55.029Z,2.36
2023-02-03T21:13:30.282Z,2.23
2023-02-03T21:16:00.120Z,2.22
2023-02-03T21:18:43.368Z,2.28
2023-02-03T21:21:15.506Z,2.28
2023-02-03T21:23:47.167Z,2.36
2023-02-03T21:26:28.974Z,2.33
2023-02-03T21:28:57.494Z,2.40
2023-02-03T21:31:33.070Z,2.33
2023-02-03T21:34:02.793Z,2.34
2023-02-03T21:36:31.937Z,2.27
2023-02-03T21:39:00.187Z,2.40
2023-02-03T21:41:32.835Z,2.48
2023-02-03T21:44:00.608Z,2.52
2023-02-03T21:46:29.611Z,2.49
2023-02-03T21:48:59.068Z,2.47
2023-02-03T21:51:31.918Z,2.57
2023-02-03T21:54:00.740Z,2.55
2023-02-03T21:56:38.489Z,2.54
2023-02-03T21:59:13.619Z,2.54
2023-02-03T22:01:41.891Z,2.61
2023-02-03T22:04:09.502Z,2.45
2023-02-03T22:06:45.505Z,2.71
2023-02-03T22:09:23.813Z,2.71
2023-02-03T22:12:11.265Z,2.55
2023-02-03T22:14:39.352Z,2.64
2023-02-03T22:17:07.169Z,2.70
2023-02-03T22:19:34.810Z,2.60
2023-02-03T22:22:02.371Z,2.66
2023-02-03T22:24:30.294Z,2.68
2023-02-03T22:27:00.307Z,2.57
2023-02-03T22:29:27.842Z,2.63
2023-02-03T22:31:55.649Z,2.53
2023-02-03T22:34:23.786Z,2.54
2023-02-03T22:36:51.552Z,2.45
2023-02-03T22:39:19.166Z,2.46
2023-02-03T22:41:46.659Z,2.38
2023-02-03T22:44:16.328Z,2.38
2023-02-03T22:46:44.256Z,2.46
2023-02-03T22:49:11.822Z,2.44
2023-02-03T22:51:40.246Z,2.35
2023-02-03T22:54:07.809Z,2.30
2023-02-03T22:56:35.364Z,2.38
2023-02-03T22:59:02.964Z,2.41
2023-02-03T23:01:30.983Z,2.51
2023-02-03T23:03:58.557Z,2.53
2023-02-03T23:06:26.065Z,2.51
2023-02-03T23:08:55.539Z,2.57
2023-02-03T23:11:23.150Z,2.70
2023-02-03T23:13:51.868Z,2.68
2023-02-03T23:16:19.406Z,2.72
2023-02-03T23:18:47.213Z,2.52
2023-02-03T23:21:14.882Z,2.70
2023-02-03T23:23:42.468Z,2.46
2023-02-03T23:26:10.662Z,2.54
2023-02-03T23:28:38.279Z,2.53
2023-02-03T23:31:06.189Z,2.53
2023-02-03T23:33:34.105Z,2.51
2023-02-03T23:36:01.932Z,2.48
2023-02-03T23:38:29.923Z,2.44
2023-02-03T23:40:57.431Z,2.41
2023-02-03T23:43:25.207Z,2.40
2023-02-03T23:45:52.893Z,2.54
2023-02-03T23:48:20.438Z,2.69
2023-02-03T23:50:49.224Z,2.69
2023-02-03T23:53:17.080Z,2.50
2023-02-03T23:55:44.663Z,2.52
2023-02-03T23:58:12.271Z,2.41
